sensor_id;sensor_type;location;lat;lon;timestamp;temperature;humidity
17587;DHT22;8912;52.336;17.172;2022-10-16T00:01:48;13.00;99.90
17587;DHT22;8912;52.336;17.172;2022-10-16T00:04:19;13.00;99.90
17587;DHT22;8912;52.336;17.172;2022-10-16T00:06:48;13.00;99.90
17587;DHT22;8912;52.336;17.172;2022-10-16T00:09:18;13.10;99.90
17587;DHT22;8912;52.336;17.172;2022-10-16T00:11:47;13.20;99.90
17587;DHT22;8912;52.336;17.172;2022-10-16T00:14:16;13.20;99.90
17587;DHT22;8912;52.336;17.172;2022-10-16T00:16:46;13.20;99.90
17587;DHT22;8912;52.336;17.172;2022-10-16T00:19:16;13.30;99.90
17587;DHT22;8912;52.336;17.172;2022-10-16T00:21:45;13.20;99.90
17587;DHT22;8912;52.336;17.172;2022-10-16T00:24:14;13.20;99.90
17587;DHT22;8912;52.336;17.172;2022-10-16T00:26:45;13.30;99.90
17587;DHT22;8912;52.336;17.172;2022-10-16T00:29:13;13.20;99.90
17587;DHT22;8912;52.336;17.172;2022-10-16T00:31:42;13.20;99.90
17587;DHT22;8912;52.336;17.172;2022-10-16T00:34:11;13.20;99.90
17587;DHT22;8912;52.336;17.172;2022-10-16T00:36:40;13.10;99.90
17587;DHT22;8912;52.336;17.172;2022-10-16T00:39:10;13.20;99.90
17587;DHT22;8912;52.336;17.172;2022-10-16T00:41:39;13.20;99.90
17587;DHT22;8912;52.336;17.172;2022-10-16T00:47:15;13.30;99.90
17587;DHT22;8912;52.336;17.172;2022-10-16T00:49:47;13.30;99.90
17587;DHT22;8912;52.336;17.172;2022-10-16T00:52:21;13.30;99.90
17587;DHT22;8912;52.336;17.172;2022-10-16T00:54:56;13.40;99.90
17587;DHT22;8912;52.336;17.172;2022-10-16T00:57:28;13.50;99.90
17587;DHT22;8912;52.336;17.172;2022-10-16T00:59:57;13.50;99.90
17587;DHT22;8912;52.336;17.172;2022-10-16T01:02:27;13.50;99.90
17587;DHT22;8912;52.336;17.172;2022-10-16T01:04:57;13.50;99.90
17587;DHT22;8912;52.336;17.172;2022-10-16T01:07:36;13.60;99.90
17587;DHT22;8912;52.336;17.172;2022-10-16T01:10:17;13.60;99.90
17587;DHT22;8912;52.336;17.172;2022-10-16T01:12:51;13.60;99.90
17587;DHT22;8912;52.336;17.172;2022-10-16T01:15:27;13.60;99.90
17587;DHT22;8912;52.336;17.172;2022-10-16T01:18:07;13.60;99.90
17587;DHT22;8912;52.336;17.172;2022-10-16T01:20:44;13.70;99.90
17587;DHT22;8912;52.336;17.172;2022-10-16T01:23:21;13.60;99.90
17587;DHT22;8912;52.336;17.172;2022-10-16T01:26:04;13.60;99.90
17587;DHT22;8912;52.336;17.172;2022-10-16T01:28:41;13.70;99.90
17587;DHT22;8912;52.336;17.172;2022-10-16T01:31:17;13.90;99.90
17587;DHT22;8912;52.336;17.172;2022-10-16T01:33:54;13.80;99.90
17587;DHT22;8912;52.336;17.172;2022-10-16T01:36:29;13.60;99.90
17587;DHT22;8912;52.336;17.172;2022-10-16T01:39:01;13.70;99.90
17587;DHT22;8912;52.336;17.172;2022-10-16T01:41:32;13.60;99.90
17587;DHT22;8912;52.336;17.172;2022-10-16T01:44:05;13.60;99.90
17587;DHT22;8912;52.336;17.172;2022-10-16T01:46:37;13.60;99.90
17587;DHT22;8912;52.336;17.172;2022-10-16T01:49:08;13.70;99.90
17587;DHT22;8912;52.336;17.172;2022-10-16T01:51:38;13.70;99.90
17587;DHT22;8912;52.336;17.172;2022-10-16T01:54:10;13.70;99.90
17587;DHT22;8912;52.336;17.172;2022-10-16T01:56:40;13.70;99.90
17587;DHT22;8912;52.336;17.172;2022-10-16T01:59:13;13.70;99.90
17587;DHT22;8912;52.336;17.172;2022-10-16T02:01:47;13.70;99.90
17587;DHT22;8912;52.336;17.172;2022-10-16T02:04:20;13.60;99.90
17587;DHT22;8912;52.336;17.172;2022-10-16T02:06:50;13.60;99.90
17587;DHT22;8912;52.336;17.172;2022-10-16T02:09:19;13.70;99.90
17587;DHT22;8912;52.336;17.172;2022-10-16T02:11:49;13.60;99.90
17587;DHT22;8912;52.336;17.172;2022-10-16T02:14:21;13.60;99.90
17587;DHT22;8912;52.336;17.172;2022-10-16T02:16:52;13.70;99.90
17587;DHT22;8912;52.336;17.172;2022-10-16T02:19:22;13.70;99.90
17587;DHT22;8912;52.336;17.172;2022-10-16T02:21:54;13.60;99.90
17587;DHT22;8912;52.336;17.172;2022-10-16T02:24:30;13.60;99.90
17587;DHT22;8912;52.336;17.172;2022-10-16T02:27:05;13.70;99.90
17587;DHT22;8912;52.336;17.172;2022-10-16T02:29:40;13.70;99.90
17587;DHT22;8912;52.336;17.172;2022-10-16T02:32:13;13.60;99.90
17587;DHT22;8912;52.336;17.172;2022-10-16T02:34:44;13.60;99.90
17587;DHT22;8912;52.336;17.172;2022-10-16T02:37:15;13.60;99.90
17587;DHT22;8912;52.336;17.172;2022-10-16T02:39:44;13.60;99.90
17587;DHT22;8912;52.336;17.172;2022-10-16T02:42:15;13.60;99.90
17587;DHT22;8912;52.336;17.172;2022-10-16T02:44:45;13.60;99.90
17587;DHT22;8912;52.336;17.172;2022-10-16T02:47:14;13.70;99.90
17587;DHT22;8912;52.336;17.172;2022-10-16T02:49:43;13.70;99.90
17587;DHT22;8912;52.336;17.172;2022-10-16T02:52:12;13.60;99.90
17587;DHT22;8912;52.336;17.172;2022-10-16T02:54:40;13.70;99.90
17587;DHT22;8912;52.336;17.172;2022-10-16T02:57:09;13.60;99.90
17587;DHT22;8912;52.336;17.172;2022-10-16T02:59:38;13.60;99.90
17587;DHT22;8912;52.336;17.172;2022-10-16T03:02:09;13.90;99.90
17587;DHT22;8912;52.336;17.172;2022-10-16T03:04:39;13.70;99.90
17587;DHT22;8912;52.336;17.172;2022-10-16T03:07:08;13.70;99.90
17587;DHT22;8912;52.336;17.172;2022-10-16T03:09:36;13.70;99.90
17587;DHT22;8912;52.336;17.172;2022-10-16T03:12:05;13.70;99.90
17587;DHT22;8912;52.336;17.172;2022-10-16T03:14:34;13.70;99.90
17587;DHT22;8912;52.336;17.172;2022-10-16T03:17:02;13.70;99.90
17587;DHT22;8912;52.336;17.172;2022-10-16T03:19:32;13.70;99.90
17587;DHT22;8912;52.336;17.172;2022-10-16T03:22:02;13.80;99.90
17587;DHT22;8912;52.336;17.172;2022-10-16T03:24:30;13.80;99.90
17587;DHT22;8912;52.336;17.172;2022-10-16T03:26:59;13.90;99.90
17587;DHT22;8912;52.336;17.172;2022-10-16T03:29:27;13.90;99.90
17587;DHT22;8912;52.336;17.172;2022-10-16T03:31:56;14.00;99.90
17587;DHT22;8912;52.336;17.172;2022-10-16T03:34:25;14.00;99.90
17587;DHT22;8912;52.336;17.172;2022-10-16T03:36:55;14.10;99.90
17587;DHT22;8912;52.336;17.172;2022-10-16T03:39:24;14.00;99.90
17587;DHT22;8912;52.336;17.172;2022-10-16T03:41:52;14.00;99.90
17587;DHT22;8912;52.336;17.172;2022-10-16T03:44:21;14.00;99.90
17587;DHT22;8912;52.336;17.172;2022-10-16T03:46:50;13.90;99.90
17587;DHT22;8912;52.336;17.172;2022-10-16T03:49:18;13.90;99.90
17587;DHT22;8912;52.336;17.172;2022-10-16T03:51:47;13.90;99.90
17587;DHT22;8912;52.336;17.172;2022-10-16T03:54:16;13.90;99.90
17587;DHT22;8912;52.336;17.172;2022-10-16T03:56:45;13.90;99.90
17587;DHT22;8912;52.336;17.172;2022-10-16T03:59:14;14.00;99.90
17587;DHT22;8912;52.336;17.172;2022-10-16T04:01:42;14.00;99.90
17587;DHT22;8912;52.336;17.172;2022-10-16T04:04:11;14.10;99.90
17587;DHT22;8912;52.336;17.172;2022-10-16T04:06:39;14.10;99.90
17587;DHT22;8912;52.336;17.172;2022-10-16T04:09:08;14.10;99.90
17587;DHT22;8912;52.336;17.172;2022-10-16T04:11:38;14.20;99.90
17587;DHT22;8912;52.336;17.172;2022-10-16T04:14:06;14.20;99.90
17587;DHT22;8912;52.336;17.172;2022-10-16T04:16:35;14.20;99.90
17587;DHT22;8912;52.336;17.172;2022-10-16T04:19:04;14.30;99.90
17587;DHT22;8912;52.336;17.172;2022-10-16T04:21:33;14.50;99.90
17587;DHT22;8912;52.336;17.172;2022-10-16T04:24:01;14.40;99.90
17587;DHT22;8912;52.336;17.172;2022-10-16T04:26:30;14.50;99.90
17587;DHT22;8912;52.336;17.172;2022-10-16T04:28:59;14.60;99.90
17587;DHT22;8912;52.336;17.172;2022-10-16T04:31:28;14.50;99.90
17587;DHT22;8912;52.336;17.172;2022-10-16T04:33:57;14.50;99.90
17587;DHT22;8912;52.336;17.172;2022-10-16T04:36:25;14.50;99.90
17587;DHT22;8912;52.336;17.172;2022-10-16T04:38:55;14.50;99.90
17587;DHT22;8912;52.336;17.172;2022-10-16T04:41:24;14.50;99.90
17587;DHT22;8912;52.336;17.172;2022-10-16T04:43:52;14.60;99.90
17587;DHT22;8912;52.336;17.172;2022-10-16T04:46:22;14.60;99.90
17587;DHT22;8912;52.336;17.172;2022-10-16T04:48:51;14.70;99.90
17587;DHT22;8912;52.336;17.172;2022-10-16T04:51:19;14.50;99.90
17587;DHT22;8912;52.336;17.172;2022-10-16T04:53:48;14.60;99.90
17587;DHT22;8912;52.336;17.172;2022-10-16T04:56:16;14.60;99.90
17587;DHT22;8912;52.336;17.172;2022-10-16T04:58:45;14.60;99.90
17587;DHT22;8912;52.336;17.172;2022-10-16T05:01:13;14.50;99.90
17587;DHT22;8912;52.336;17.172;2022-10-16T05:03:43;14.50;99.90
17587;DHT22;8912;52.336;17.172;2022-10-16T05:06:12;14.50;99.90
17587;DHT22;8912;52.336;17.172;2022-10-16T05:08:40;14.50;99.90
17587;DHT22;8912;52.336;17.172;2022-10-16T05:11:09;14.50;99.90
17587;DHT22;8912;52.336;17.172;2022-10-16T05:13:37;14.50;99.90
17587;DHT22;8912;52.336;17.172;2022-10-16T05:16:06;14.60;99.90
17587;DHT22;8912;52.336;17.172;2022-10-16T05:18:35;14.50;99.90
17587;DHT22;8912;52.336;17.172;2022-10-16T05:21:05;14.60;99.90
17587;DHT22;8912;52.336;17.172;2022-10-16T05:23:34;14.70;99.90
17587;DHT22;8912;52.336;17.172;2022-10-16T05:26:02;14.60;99.90
17587;DHT22;8912;52.336;17.172;2022-10-16T05:28:31;14.60;99.90
17587;DHT22;8912;52.336;17.172;2022-10-16T05:31:04;14.50;99.90
17587;DHT22;8912;52.336;17.172;2022-10-16T05:33:33;14.50;99.90
17587;DHT22;8912;52.336;17.172;2022-10-16T05:36:01;14.50;99.90
17587;DHT22;8912;52.336;17.172;2022-10-16T05:38:31;14.50;99.90
17587;DHT22;8912;52.336;17.172;2022-10-16T05:41:00;14.50;99.90
17587;DHT22;8912;52.336;17.172;2022-10-16T05:43:29;14.60;99.90
17587;DHT22;8912;52.336;17.172;2022-10-16T05:46:00;14.70;99.90
17587;DHT22;8912;52.336;17.172;2022-10-16T05:48:29;14.60;99.90
17587;DHT22;8912;52.336;17.172;2022-10-16T05:50:59;14.50;99.90
17587;DHT22;8912;52.336;17.172;2022-10-16T05:53:28;14.60;99.90
17587;DHT22;8912;52.336;17.172;2022-10-16T05:55:59;15.00;99.90
17587;DHT22;8912;52.336;17.172;2022-10-16T05:58:29;14.70;99.90
17587;DHT22;8912;52.336;17.172;2022-10-16T06:01:00;14.70;99.90
17587;DHT22;8912;52.336;17.172;2022-10-16T06:03:29;14.80;99.90
17587;DHT22;8912;52.336;17.172;2022-10-16T06:06:07;14.80;99.90
17587;DHT22;8912;52.336;17.172;2022-10-16T06:08:39;14.70;99.90
17587;DHT22;8912;52.336;17.172;2022-10-16T06:11:12;14.60;99.90
17587;DHT22;8912;52.336;17.172;2022-10-16T06:13:41;14.70;99.90
17587;DHT22;8912;52.336;17.172;2022-10-16T06:16:11;14.70;99.90
17587;DHT22;8912;52.336;17.172;2022-10-16T06:18:40;14.70;99.90
17587;DHT22;8912;52.336;17.172;2022-10-16T06:21:11;14.70;99.90
17587;DHT22;8912;52.336;17.172;2022-10-16T06:23:43;14.70;99.90
17587;DHT22;8912;52.336;17.172;2022-10-16T06:26:16;14.70;99.90
17587;DHT22;8912;52.336;17.172;2022-10-16T06:28:49;14.70;99.90
17587;DHT22;8912;52.336;17.172;2022-10-16T06:31:18;14.60;99.90
17587;DHT22;8912;52.336;17.172;2022-10-16T06:33:50;14.60;99.90
17587;DHT22;8912;52.336;17.172;2022-10-16T06:36:20;14.70;99.90
17587;DHT22;8912;52.336;17.172;2022-10-16T06:38:50;14.70;99.90
17587;DHT22;8912;52.336;17.172;2022-10-16T06:41:22;14.70;99.90
17587;DHT22;8912;52.336;17.172;2022-10-16T06:43:51;14.80;99.90
17587;DHT22;8912;52.336;17.172;2022-10-16T06:46:22;14.70;99.90
17587;DHT22;8912;52.336;17.172;2022-10-16T06:48:51;14.70;99.90
17587;DHT22;8912;52.336;17.172;2022-10-16T06:51:21;14.70;99.90
17587;DHT22;8912;52.336;17.172;2022-10-16T06:53:52;14.70;99.90
17587;DHT22;8912;52.336;17.172;2022-10-16T06:56:33;14.70;99.90
17587;DHT22;8912;52.336;17.172;2022-10-16T06:59:04;14.90;99.90
17587;DHT22;8912;52.336;17.172;2022-10-16T07:01:33;14.80;99.90
17587;DHT22;8912;52.336;17.172;2022-10-16T07:04:02;14.80;99.90
17587;DHT22;8912;52.336;17.172;2022-10-16T07:06:34;14.80;99.90
17587;DHT22;8912;52.336;17.172;2022-10-16T07:09:05;14.80;99.90
17587;DHT22;8912;52.336;17.172;2022-10-16T07:11:36;14.90;99.90
17587;DHT22;8912;52.336;17.172;2022-10-16T07:16:42;15.00;99.90
17587;DHT22;8912;52.336;17.172;2022-10-16T07:19:11;15.10;99.90
17587;DHT22;8912;52.336;17.172;2022-10-16T07:21:43;15.20;99.90
17587;DHT22;8912;52.336;17.172;2022-10-16T07:24:14;15.20;99.90
17587;DHT22;8912;52.336;17.172;2022-10-16T07:26:45;15.20;99.90
17587;DHT22;8912;52.336;17.172;2022-10-16T07:29:18;15.20;99.90
17587;DHT22;8912;52.336;17.172;2022-10-16T07:31:48;15.30;99.90
17587;DHT22;8912;52.336;17.172;2022-10-16T07:34:18;15.30;99.90
17587;DHT22;8912;52.336;17.172;2022-10-16T07:36:49;14.70;99.90
17587;DHT22;8912;52.336;17.172;2022-10-16T07:39:18;15.50;99.90
17587;DHT22;8912;52.336;17.172;2022-10-16T07:41:50;15.40;99.90
17587;DHT22;8912;52.336;17.172;2022-10-16T07:44:19;15.50;99.90
17587;DHT22;8912;52.336;17.172;2022-10-16T07:46:48;15.60;99.90
17587;DHT22;8912;52.336;17.172;2022-10-16T07:49:20;15.60;99.90
17587;DHT22;8912;52.336;17.172;2022-10-16T07:51:49;15.70;99.90
17587;DHT22;8912;52.336;17.172;2022-10-16T07:54:17;15.70;99.90
17587;DHT22;8912;52.336;17.172;2022-10-16T07:56:46;15.70;99.90
17587;DHT22;8912;52.336;17.172;2022-10-16T07:59:17;15.90;99.90
17587;DHT22;8912;52.336;17.172;2022-10-16T08:01:46;16.00;99.90
17587;DHT22;8912;52.336;17.172;2022-10-16T08:04:17;16.00;99.90
17587;DHT22;8912;52.336;17.172;2022-10-16T08:06:46;16.10;99.90
17587;DHT22;8912;52.336;17.172;2022-10-16T08:09:14;16.20;99.90
17587;DHT22;8912;52.336;17.172;2022-10-16T08:11:43;16.30;99.90
17587;DHT22;8912;52.336;17.172;2022-10-16T08:14:12;16.40;99.90
17587;DHT22;8912;52.336;17.172;2022-10-16T08:16:42;16.50;99.90
17587;DHT22;8912;52.336;17.172;2022-10-16T08:19:11;16.50;99.90
17587;DHT22;8912;52.336;17.172;2022-10-16T08:21:39;16.70;99.90
17587;DHT22;8912;52.336;17.172;2022-10-16T08:24:08;16.80;99.90
17587;DHT22;8912;52.336;17.172;2022-10-16T08:26:37;16.80;99.90
17587;DHT22;8912;52.336;17.172;2022-10-16T08:29:06;16.90;99.90
17587;DHT22;8912;52.336;17.172;2022-10-16T08:31:35;16.90;99.90
17587;DHT22;8912;52.336;17.172;2022-10-16T08:34:08;17.10;99.90
17587;DHT22;8912;52.336;17.172;2022-10-16T08:36:37;17.10;99.90
17587;DHT22;8912;52.336;17.172;2022-10-16T08:39:07;17.10;99.90
17587;DHT22;8912;52.336;17.172;2022-10-16T08:41:56;17.10;99.90
17587;DHT22;8912;52.336;17.172;2022-10-16T08:44:52;17.00;99.90
17587;DHT22;8912;52.336;17.172;2022-10-16T08:47:29;17.00;99.90
17587;DHT22;8912;52.336;17.172;2022-10-16T08:50:10;17.10;99.90
17587;DHT22;8912;52.336;17.172;2022-10-16T08:52:41;17.00;99.90
17587;DHT22;8912;52.336;17.172;2022-10-16T08:55:24;17.00;99.90
17587;DHT22;8912;52.336;17.172;2022-10-16T08:57:57;17.00;99.90
17587;DHT22;8912;52.336;17.172;2022-10-16T09:00:26;17.00;99.90
17587;DHT22;8912;52.336;17.172;2022-10-16T09:03:04;17.20;99.90
17587;DHT22;8912;52.336;17.172;2022-10-16T09:08:53;17.50;99.90
17587;DHT22;8912;52.336;17.172;2022-10-16T09:11:37;17.60;99.90
17587;DHT22;8912;52.336;17.172;2022-10-16T09:14:23;17.80;99.90
17587;DHT22;8912;52.336;17.172;2022-10-16T09:17:17;17.70;99.90
17587;DHT22;8912;52.336;17.172;2022-10-16T09:19:51;17.90;99.90
17587;DHT22;8912;52.336;17.172;2022-10-16T09:22:26;17.60;99.90
17587;DHT22;8912;52.336;17.172;2022-10-16T09:25:00;17.50;99.90
17587;DHT22;8912;52.336;17.172;2022-10-16T09:27:30;17.60;99.90
17587;DHT22;8912;52.336;17.172;2022-10-16T09:29:59;17.70;99.90
17587;DHT22;8912;52.336;17.172;2022-10-16T09:32:29;17.60;99.90
17587;DHT22;8912;52.336;17.172;2022-10-16T09:34:59;17.70;99.90
17587;DHT22;8912;52.336;17.172;2022-10-16T09:37:28;17.70;99.90
17587;DHT22;8912;52.336;17.172;2022-10-16T09:39:58;17.60;99.90
17587;DHT22;8912;52.336;17.172;2022-10-16T09:42:35;17.80;99.90
17587;DHT22;8912;52.336;17.172;2022-10-16T09:45:06;17.70;99.90
17587;DHT22;8912;52.336;17.172;2022-10-16T09:47:48;17.70;99.90
17587;DHT22;8912;52.336;17.172;2022-10-16T09:50:25;17.70;99.90
17587;DHT22;8912;52.336;17.172;2022-10-16T09:53:05;17.70;99.90
17587;DHT22;8912;52.336;17.172;2022-10-16T09:55:35;17.80;99.90
17587;DHT22;8912;52.336;17.172;2022-10-16T09:58:13;18.00;99.90
17587;DHT22;8912;52.336;17.172;2022-10-16T10:00:49;18.20;99.90
17587;DHT22;8912;52.336;17.172;2022-10-16T10:03:34;18.40;99.90
17587;DHT22;8912;52.336;17.172;2022-10-16T10:06:14;18.60;99.90
17587;DHT22;8912;52.336;17.172;2022-10-16T10:08:56;18.80;99.90
17587;DHT22;8912;52.336;17.172;2022-10-16T10:11:41;18.90;99.90
17587;DHT22;8912;52.336;17.172;2022-10-16T10:14:22;19.00;99.90
17587;DHT22;8912;52.336;17.172;2022-10-16T10:16:52;19.10;99.90
17587;DHT22;8912;52.336;17.172;2022-10-16T10:19:23;19.30;99.90
17587;DHT22;8912;52.336;17.172;2022-10-16T10:21:59;19.60;99.90
17587;DHT22;8912;52.336;17.172;2022-10-16T10:24:28;19.60;99.90
17587;DHT22;8912;52.336;17.172;2022-10-16T10:27:05;19.60;99.90
17587;DHT22;8912;52.336;17.172;2022-10-16T10:29:47;19.80;99.90
17587;DHT22;8912;52.336;17.172;2022-10-16T10:32:25;19.70;99.90
17587;DHT22;8912;52.336;17.172;2022-10-16T10:35:07;19.50;99.90
17587;DHT22;8912;52.336;17.172;2022-10-16T10:37:55;19.40;99.90
17587;DHT22;8912;52.336;17.172;2022-10-16T10:40:40;19.30;99.90
17587;DHT22;8912;52.336;17.172;2022-10-16T10:43:27;19.30;99.90
17587;DHT22;8912;52.336;17.172;2022-10-16T10:46:03;19.30;99.90
17587;DHT22;8912;52.336;17.172;2022-10-16T10:48:51;19.30;99.90
17587;DHT22;8912;52.336;17.172;2022-10-16T10:51:27;19.40;99.90
17587;DHT22;8912;52.336;17.172;2022-10-16T10:54:09;19.40;99.90
17587;DHT22;8912;52.336;17.172;2022-10-16T10:56:45;19.50;99.90
17587;DHT22;8912;52.336;17.172;2022-10-16T11:02:21;19.40;99.90
17587;DHT22;8912;52.336;17.172;2022-10-16T11:08:02;19.80;99.90
17587;DHT22;8912;52.336;17.172;2022-10-16T11:10:41;19.80;99.90
17587;DHT22;8912;52.336;17.172;2022-10-16T11:13:23;20.00;99.90
17587;DHT22;8912;52.336;17.172;2022-10-16T11:15:58;19.90;99.90
17587;DHT22;8912;52.336;17.172;2022-10-16T11:18:33;19.90;99.90
17587;DHT22;8912;52.336;17.172;2022-10-16T11:21:08;19.80;99.90
17587;DHT22;8912;52.336;17.172;2022-10-16T11:23:42;19.70;99.90
17587;DHT22;8912;52.336;17.172;2022-10-16T11:26:17;19.80;99.90
17587;DHT22;8912;52.336;17.172;2022-10-16T11:28:48;20.00;99.90
17587;DHT22;8912;52.336;17.172;2022-10-16T11:31:26;20.00;99.90
17587;DHT22;8912;52.336;17.172;2022-10-16T11:34:04;20.20;99.90
17587;DHT22;8912;52.336;17.172;2022-10-16T11:36:38;20.00;99.90
17587;DHT22;8912;52.336;17.172;2022-10-16T11:39:19;19.90;99.90
17587;DHT22;8912;52.336;17.172;2022-10-16T11:41:50;19.90;99.90
17587;DHT22;8912;52.336;17.172;2022-10-16T11:44:44;19.90;99.90
17587;DHT22;8912;52.336;17.172;2022-10-16T11:47:26;19.90;99.90
17587;DHT22;8912;52.336;17.172;2022-10-16T11:50:22;19.80;99.90
17587;DHT22;8912;52.336;17.172;2022-10-16T11:52:55;19.90;99.90
17587;DHT22;8912;52.336;17.172;2022-10-16T11:55:30;19.90;99.90
17587;DHT22;8912;52.336;17.172;2022-10-16T11:58:03;20.00;99.90
17587;DHT22;8912;52.336;17.172;2022-10-16T12:00:39;20.00;99.90
17587;DHT22;8912;52.336;17.172;2022-10-16T12:03:20;20.00;99.90
17587;DHT22;8912;52.336;17.172;2022-10-16T12:05:58;20.40;99.90
17587;DHT22;8912;52.336;17.172;2022-10-16T12:08:29;20.40;99.90
17587;DHT22;8912;52.336;17.172;2022-10-16T12:11:07;20.50;99.90
17587;DHT22;8912;52.336;17.172;2022-10-16T12:13:38;20.60;99.90
17587;DHT22;8912;52.336;17.172;2022-10-16T12:16:20;20.80;99.90
17587;DHT22;8912;52.336;17.172;2022-10-16T12:19:09;20.80;99.90
17587;DHT22;8912;52.336;17.172;2022-10-16T12:21:39;20.80;99.90
17587;DHT22;8912;52.336;17.172;2022-10-16T12:24:21;20.80;99.90
17587;DHT22;8912;52.336;17.172;2022-10-16T12:26:51;20.80;99.90
17587;DHT22;8912;52.336;17.172;2022-10-16T12:29:27;20.60;99.90
17587;DHT22;8912;52.336;17.172;2022-10-16T12:31:57;20.50;99.90
17587;DHT22;8912;52.336;17.172;2022-10-16T12:34:29;20.60;99.90
17587;DHT22;8912;52.336;17.172;2022-10-16T12:37:10;20.50;99.90
17587;DHT22;8912;52.336;17.172;2022-10-16T12:39:40;20.40;99.90
17587;DHT22;8912;52.336;17.172;2022-10-16T12:42:32;20.50;99.90
17587;DHT22;8912;52.336;17.172;2022-10-16T12:45:22;20.70;99.90
17587;DHT22;8912;52.336;17.172;2022-10-16T12:47:53;20.70;99.90
17587;DHT22;8912;52.336;17.172;2022-10-16T12:50:42;20.90;99.90
17587;DHT22;8912;52.336;17.172;2022-10-16T12:53:19;20.80;99.90
17587;DHT22;8912;52.336;17.172;2022-10-16T12:55:56;21.00;99.90
17587;DHT22;8912;52.336;17.172;2022-10-16T12:58:53;21.10;99.90
17587;DHT22;8912;52.336;17.172;2022-10-16T13:01:53;21.10;99.90
17587;DHT22;8912;52.336;17.172;2022-10-16T13:04:43;21.40;99.90
17587;DHT22;8912;52.336;17.172;2022-10-16T13:07:33;21.80;99.90
17587;DHT22;8912;52.336;17.172;2022-10-16T13:10:13;22.00;99.90
17587;DHT22;8912;52.336;17.172;2022-10-16T13:13:23;21.90;99.90
17587;DHT22;8912;52.336;17.172;2022-10-16T13:16:04;21.60;99.90
17587;DHT22;8912;52.336;17.172;2022-10-16T13:18:42;21.50;99.90
17587;DHT22;8912;52.336;17.172;2022-10-16T13:21:25;21.40;99.90
17587;DHT22;8912;52.336;17.172;2022-10-16T13:24:11;21.30;99.90
17587;DHT22;8912;52.336;17.172;2022-10-16T13:26:46;21.10;99.90
17587;DHT22;8912;52.336;17.172;2022-10-16T13:29:18;20.90;99.90
17587;DHT22;8912;52.336;17.172;2022-10-16T13:31:48;20.80;99.90
17587;DHT22;8912;52.336;17.172;2022-10-16T13:34:18;20.70;99.90
17587;DHT22;8912;52.336;17.172;2022-10-16T13:36:49;20.70;99.90
17587;DHT22;8912;52.336;17.172;2022-10-16T13:39:24;20.70;99.90
17587;DHT22;8912;52.336;17.172;2022-10-16T13:42:04;20.70;99.90
17587;DHT22;8912;52.336;17.172;2022-10-16T13:44:39;20.50;99.90
17587;DHT22;8912;52.336;17.172;2022-10-16T13:47:17;20.50;99.90
17587;DHT22;8912;52.336;17.172;2022-10-16T13:49:47;20.50;99.90
17587;DHT22;8912;52.336;17.172;2022-10-16T13:52:18;20.60;99.90
17587;DHT22;8912;52.336;17.172;2022-10-16T13:54:52;20.60;99.90
17587;DHT22;8912;52.336;17.172;2022-10-16T13:57:28;20.70;99.90
17587;DHT22;8912;52.336;17.172;2022-10-16T13:59:58;20.70;99.90
17587;DHT22;8912;52.336;17.172;2022-10-16T14:02:30;20.70;99.90
17587;DHT22;8912;52.336;17.172;2022-10-16T14:05:02;20.70;99.90
17587;DHT22;8912;52.336;17.172;2022-10-16T14:07:33;20.50;99.90
17587;DHT22;8912;52.336;17.172;2022-10-16T14:10:06;20.50;99.90
17587;DHT22;8912;52.336;17.172;2022-10-16T14:12:35;20.40;99.90
17587;DHT22;8912;52.336;17.172;2022-10-16T14:15:15;20.30;99.90
17587;DHT22;8912;52.336;17.172;2022-10-16T14:17:46;20.30;99.90
17587;DHT22;8912;52.336;17.172;2022-10-16T14:20:17;20.20;99.90
17587;DHT22;8912;52.336;17.172;2022-10-16T14:22:46;20.30;99.90
17587;DHT22;8912;52.336;17.172;2022-10-16T14:25:27;20.30;99.90
17587;DHT22;8912;52.336;17.172;2022-10-16T14:27:58;20.30;99.90
17587;DHT22;8912;52.336;17.172;2022-10-16T14:30:33;20.20;99.90
17587;DHT22;8912;52.336;17.172;2022-10-16T14:33:04;20.20;99.90
17587;DHT22;8912;52.336;17.172;2022-10-16T14:35:35;20.10;99.90
17587;DHT22;8912;52.336;17.172;2022-10-16T14:38:06;20.10;99.90
17587;DHT22;8912;52.336;17.172;2022-10-16T14:40:48;20.10;99.90
17587;DHT22;8912;52.336;17.172;2022-10-16T14:43:21;20.00;99.90
17587;DHT22;8912;52.336;17.172;2022-10-16T14:45:52;20.00;99.90
17587;DHT22;8912;52.336;17.172;2022-10-16T14:48:22;19.90;99.90
17587;DHT22;8912;52.336;17.172;2022-10-16T14:50:52;19.90;99.90
17587;DHT22;8912;52.336;17.172;2022-10-16T14:53:21;20.00;99.90
17587;DHT22;8912;52.336;17.172;2022-10-16T14:55:51;20.00;99.90
17587;DHT22;8912;52.336;17.172;2022-10-16T14:58:22;20.00;99.90
17587;DHT22;8912;52.336;17.172;2022-10-16T15:00:52;20.00;99.90
17587;DHT22;8912;52.336;17.172;2022-10-16T15:03:21;20.00;99.90
17587;DHT22;8912;52.336;17.172;2022-10-16T15:05:50;20.00;99.90
17587;DHT22;8912;52.336;17.172;2022-10-16T15:08:19;19.90;99.90
17587;DHT22;8912;52.336;17.172;2022-10-16T15:10:48;19.90;99.90
17587;DHT22;8912;52.336;17.172;2022-10-16T15:13:18;19.80;99.90
17587;DHT22;8912;52.336;17.172;2022-10-16T15:15:47;19.80;99.90
17587;DHT22;8912;52.336;17.172;2022-10-16T15:18:16;19.70;99.90
17587;DHT22;8912;52.336;17.172;2022-10-16T15:20:49;19.60;99.90
17587;DHT22;8912;52.336;17.172;2022-10-16T15:23:19;19.60;99.90
17587;DHT22;8912;52.336;17.172;2022-10-16T15:25:50;19.60;99.90
17587;DHT22;8912;52.336;17.172;2022-10-16T15:28:22;19.60;99.90
17587;DHT22;8912;52.336;17.172;2022-10-16T15:30:53;19.60;99.90
17587;DHT22;8912;52.336;17.172;2022-10-16T15:33:24;19.60;99.90
17587;DHT22;8912;52.336;17.172;2022-10-16T15:35:55;19.60;99.90
17587;DHT22;8912;52.336;17.172;2022-10-16T15:38:24;19.60;99.90
17587;DHT22;8912;52.336;17.172;2022-10-16T15:40:55;19.50;99.90
17587;DHT22;8912;52.336;17.172;2022-10-16T15:43:25;19.40;99.90
17587;DHT22;8912;52.336;17.172;2022-10-16T15:46:00;19.30;99.90
17587;DHT22;8912;52.336;17.172;2022-10-16T15:48:30;19.20;99.90
17587;DHT22;8912;52.336;17.172;2022-10-16T15:50:59;19.00;99.90
17587;DHT22;8912;52.336;17.172;2022-10-16T15:53:28;18.80;99.90
17587;DHT22;8912;52.336;17.172;2022-10-16T15:55:57;18.70;99.90
17587;DHT22;8912;52.336;17.172;2022-10-16T15:58:29;18.60;99.90
17587;DHT22;8912;52.336;17.172;2022-10-16T16:00:59;18.50;99.90
17587;DHT22;8912;52.336;17.172;2022-10-16T16:03:30;18.30;99.90
17587;DHT22;8912;52.336;17.172;2022-10-16T16:06:04;18.30;99.90
17587;DHT22;8912;52.336;17.172;2022-10-16T16:08:33;18.20;99.90
17587;DHT22;8912;52.336;17.172;2022-10-16T16:11:04;18.00;99.90
17587;DHT22;8912;52.336;17.172;2022-10-16T16:13:34;17.90;99.90
17587;DHT22;8912;52.336;17.172;2022-10-16T16:16:06;17.80;99.90
17587;DHT22;8912;52.336;17.172;2022-10-16T16:18:35;17.70;99.90
17587;DHT22;8912;52.336;17.172;2022-10-16T16:21:05;17.60;99.90